Time;durP1;ratioP1;P1;durP2;ratioP2;P2;SDS_P1;SDS_P2;PMS_P1;PMS_P2;Temp;Humidity;BMP_temperature;BMP_pressure;BME280_temperature;BME280_humidity;BME280_pressure;Samples;Min_cycle;Max_cycle;Signal;HPM_P1;HPM_P2
2023/12/05 00:00:22;;;;;;;17.60;15.80;;;;;;;4.31;100.00;99719.06;5240242;28;20025;-75
2023/12/05 00:02:54;;;;;;;18.42;16.52;;;;;;;4.30;100.00;99714.84;5241032;28;20029;-75
2023/12/05 00:05:26;;;;;;;17.73;15.93;;;;;;;4.34;100.00;99724.03;5241740;28;20534;-75
2023/12/05 00:07:58;;;;;;;19.25;17.25;;;;;;;4.34;100.00;99729.22;5223361;28;20045;-75
2023/12/05 00:10:30;;;;;;;18.90;17.00;;;;;;;4.36;100.00;99724.75;5242852;28;20479;-75
2023/12/05 00:13:03;;;;;;;19.00;17.02;;;;;;;4.33;100.00;99719.78;5240290;28;20398;-75
2023/12/05 00:15:35;;;;;;;20.05;16.80;;;;;;;4.32;100.00;99724.16;5240423;28;20394;-75
2023/12/05 00:18:08;;;;;;;18.60;16.70;;;;;;;4.31;100.00;99724.25;5240255;28;20025;-75
2023/12/05 00:20:40;;;;;;;18.85;16.88;;;;;;;4.33;100.00;99717.19;5240860;28;20483;-75
2023/12/05 00:23:12;;;;;;;18.08;16.27;;;;;;;4.37;100.00;99719.44;5239259;28;20055;-75
2023/12/05 00:25:44;;;;;;;19.27;17.27;;;;;;;4.36;100.00;99717.78;5240848;28;20067;-75
2023/12/05 00:28:16;;;;;;;19.65;17.65;;;;;;;4.37;100.00;99708.25;5238601;28;20116;-75
2023/12/05 00:30:47;;;;;;;19.25;17.30;;;;;;;4.38;100.00;99712.47;5239205;28;20031;-75
2023/12/05 00:33:19;;;;;;;19.23;17.20;;;;;;;4.41;100.00;99711.44;5237567;28;20684;-75
2023/12/05 00:35:52;;;;;;;18.73;16.83;;;;;;;4.44;100.00;99717.19;5239244;28;20052;-75
2023/12/05 00:38:24;;;;;;;19.02;17.13;;;;;;;4.46;100.00;99709.28;5242916;28;20033;-75
2023/12/05 00:40:59;;;;;;;19.77;17.77;;;;;;;4.46;100.00;99704.91;5239471;28;20039;-75
2023/12/05 00:43:31;;;;;;;19.42;17.48;;;;;;;4.49;100.00;99709.88;5240864;28;20033;-75
2023/12/05 00:46:03;;;;;;;19.17;17.25;;;;;;;4.49;100.00;99702.09;5240134;28;20041;-75
2023/12/05 00:48:35;;;;;;;19.05;17.08;;;;;;;4.50;100.00;99698.56;5238751;28;20036;-75
2023/12/05 00:51:07;;;;;;;19.23;17.33;;;;;;;4.51;100.00;99701.97;5241603;28;20029;-75
2023/12/05 00:53:39;;;;;;;19.48;17.48;;;;;;;4.51;100.00;99707.16;5242152;28;20029;-74
2023/12/05 00:56:11;;;;;;;19.77;17.77;;;;;;;4.50;100.00;99708.94;5240919;28;20033;-75
2023/12/05 00:58:43;;;;;;;19.10;17.17;;;;;;;4.54;100.00;99707.75;5240993;28;20493;-75
2023/12/05 01:01:18;;;;;;;19.67;17.63;;;;;;;4.55;100.00;99708.59;5238824;28;20037;-75
2023/12/05 01:03:54;;;;;;;17.77;15.93;;;;;;;4.50;100.00;99701.16;5237982;28;20374;-75
2023/12/05 01:06:26;;;;;;;17.48;15.73;;;;;;;4.53;100.00;99705.28;5239362;28;20382;-75
2023/12/05 01:08:58;;;;;;;18.55;16.70;;;;;;;4.52;100.00;99703.63;5242535;28;20059;-75
2023/12/05 01:11:30;;;;;;;18.55;16.58;;;;;;;4.46;100.00;99696.31;5238973;28;20039;-75
2023/12/05 01:14:02;;;;;;;19.88;17.77;;;;;;;4.52;100.00;99701.03;5239277;28;20044;-75
2023/12/05 01:16:33;;;;;;;19.17;17.27;;;;;;;4.55;100.00;99704.22;5239693;28;20033;-75
2023/12/05 01:19:05;;;;;;;17.95;16.15;;;;;;;4.56;100.00;99698.09;5238574;28;20541;-75
2023/12/05 01:21:37;;;;;;;19.10;17.15;;;;;;;4.52;100.00;99694.09;5240395;28;20501;-75
2023/12/05 01:24:09;;;;;;;19.08;17.13;;;;;;;4.57;100.00;99691.13;5240652;28;20029;-74
2023/12/05 01:26:41;;;;;;;19.98;17.95;;;;;;;4.55;100.00;99699.03;5238397;28;20030;-75
2023/12/05 01:29:13;;;;;;;20.15;18.15;;;;;;;4.59;100.00;99699.63;5239963;28;20029;-75
2023/12/05 01:31:45;;;;;;;19.02;17.13;;;;;;;4.60;100.00;99691.72;5240748;28;20070;-75
2023/12/05 01:34:17;;;;;;;18.92;17.08;;;;;;;4.59;100.00;99691.84;5237553;28;20034;-75
2023/12/05 01:36:49;;;;;;;20.55;18.40;;;;;;;4.60;100.00;99688.28;5241033;28;20132;-75
2023/12/05 01:39:20;;;;;;;18.95;17.02;;;;;;;4.64;100.00;99698.31;5238635;28;20033;-75
2023/12/05 01:41:52;;;;;;;19.10;17.17;;;;;;;4.63;100.00;99686.28;5237075;28;20040;-75
2023/12/05 01:44:24;;;;;;;20.05;17.75;;;;;;;4.63;100.00;99688.88;5239544;28;20524;-75
2023/12/05 01:46:57;;;;;;;18.77;16.88;;;;;;;4.67;100.00;99692.06;5239373;28;20706;-75
2023/12/05 01:49:33;;;;;;;19.67;17.58;;;;;;;4.69;100.00;99690.16;5238293;28;20037;-75
2023/12/05 01:52:05;;;;;;;18.67;16.83;;;;;;;4.69;100.00;99694.53;5238414;28;20039;-75
2023/12/05 01:54:38;;;;;;;20.23;18.15;;;;;;;4.72;100.00;99702.06;5237121;28;20048;-75
2023/12/05 01:57:10;;;;;;;18.85;16.95;;;;;;;4.73;100.00;99694.16;5238730;28;20029;-75
2023/12/05 01:59:42;;;;;;;19.63;17.55;;;;;;;4.73;100.00;99704.53;5237554;28;20322;-75
2023/12/05 02:02:13;;;;;;;19.08;17.08;;;;;;;4.73;100.00;99704.53;5237608;28;20076;-75
2023/12/05 02:04:45;;;;;;;19.65;17.70;;;;;;;4.74;100.00;99710.56;5239928;28;20394;-75
2023/12/05 02:07:18;;;;;;;20.17;17.65;;;;;;;4.69;100.00;99710.09;5240904;28;20047;-75
2023/12/05 02:09:50;;;;;;;19.17;17.15;;;;;;;4.73;100.00;99712.31;5236548;28;20060;-75
2023/12/05 02:12:22;;;;;;;19.08;17.17;;;;;;;4.71;100.00;99706.44;5220963;28;20049;-75
2023/12/05 02:14:54;;;;;;;20.33;18.27;;;;;;;4.68;100.00;99709.28;5236565;28;20033;-75
2023/12/05 02:17:39;;;;;;;20.08;18.05;;;;;;;4.90;100.00;99705.81;5236844;28;20051;-75
2023/12/05 02:20:36;;;;;;;20.67;18.55;;;;;;;4.80;100.00;99697.91;5238410;28;20521;-75
2023/12/05 02:23:27;;;;;;;21.45;19.15;;;;;;;4.74;100.00;99705.38;5237763;28;20833;-75
2023/12/05 02:26:26;;;;;;;19.70;17.60;;;;;;;4.92;100.00;99695.28;5239784;28;20033;-75
2023/12/05 02:28:58;;;;;;;20.20;18.02;;;;;;;4.78;100.00;99709.38;5243643;28;20037;-75
2023/12/05 02:31:30;;;;;;;21.15;18.95;;;;;;;4.77;100.00;99702.53;5242179;28;20041;-75
2023/12/05 02:34:02;;;;;;;21.38;19.17;;;;;;;4.79;100.00;99701.47;5250659;28;20032;-75
2023/12/05 02:37:07;;;;;;;20.95;18.85;;;;;;;4.98;100.00;99700.81;5252417;28;20037;-75
2023/12/05 02:39:53;;;;;;;20.25;18.20;;;;;;;4.94;100.00;99698.59;5251775;28;20029;-75
2023/12/05 02:42:27;;;;;;;21.33;19.13;;;;;;;4.87;100.00;99703.44;5249402;28;20049;-75
2023/12/05 02:45:02;;;;;;;20.90;18.58;;;;;;;4.91;100.00;99696.25;5250621;28;20686;-75
2023/12/05 02:47:35;;;;;;;21.58;19.48;;;;;;;4.85;100.00;99700.16;5251097;28;20044;-75
2023/12/05 02:50:07;;;;;;;23.40;21.10;;;;;;;4.82;100.00;99695.22;5244239;28;20039;-75
2023/12/05 02:52:39;;;;;;;20.23;18.13;;;;;;;4.88;100.00;99686.94;5250034;28;20410;-75
2023/12/05 02:55:11;;;;;;;21.20;19.10;;;;;;;4.88;100.00;99689.53;5248820;28;20029;-75
2023/12/05 02:57:44;;;;;;;21.27;19.17;;;;;;;4.92;100.00;99690.09;5248513;28;20029;-75
2023/12/05 03:00:16;;;;;;;22.90;19.03;;;;;;;4.96;100.00;99691.50;5250573;28;20619;-75
2023/12/05 03:02:47;;;;;;;23.45;21.00;;;;;;;4.91;100.00;99685.88;5252222;28;20041;-75
2023/12/05 03:05:19;;;;;;;21.77;19.58;;;;;;;4.93;100.00;99687.41;5250607;28;20405;-75
2023/12/05 03:07:51;;;;;;;22.35;19.95;;;;;;;4.91;100.00;99683.28;5249703;28;20066;-75
2023/12/05 03:10:23;;;;;;;22.98;20.60;;;;;;;4.87;100.00;99685.28;5250740;28;20040;-75
2023/12/05 03:12:55;;;;;;;22.77;20.40;;;;;;;4.90;100.00;99677.25;5250881;28;20162;-75
2023/12/05 03:15:27;;;;;;;22.25;20.02;;;;;;;4.90;100.00;99676.44;5251526;28;20033;-75
2023/12/05 03:17:59;;;;;;;20.83;18.75;;;;;;;4.93;100.00;99676.19;5251412;28;20041;-75
2023/12/05 03:20:31;;;;;;;23.45;21.10;;;;;;;4.92;100.00;99680.53;5252004;28;20033;-75
2023/12/05 03:23:03;;;;;;;22.58;20.35;;;;;;;4.94;100.00;99680.44;5249806;28;20104;-75
2023/12/05 03:25:34;;;;;;;23.15;20.67;;;;;;;4.94;100.00;99665.69;5251296;28;20032;-75
2023/12/05 03:28:06;;;;;;;21.92;19.63;;;;;;;4.97;100.00;99677.59;5250698;28;20482;-75
2023/12/05 03:30:38;;;;;;;22.98;20.75;;;;;;;4.97;100.00;99677.59;5251505;28;20368;-75
2023/12/05 03:33:10;;;;;;;23.67;21.27;;;;;;;4.99;100.00;99678.28;5242698;28;20388;-75
2023/12/05 03:35:42;;;;;;;22.17;19.92;;;;;;;5.00;100.00;99687.72;5240158;28;20036;-75
2023/12/05 03:38:14;;;;;;;23.98;21.38;;;;;;;5.02;100.00;99688.44;5242385;28;20029;-75
2023/12/05 03:40:46;;;;;;;22.58;20.25;;;;;;;5.06;100.00;99679.44;5239239;28;20032;-75
2023/12/05 03:43:18;;;;;;;22.95;20.73;;;;;;;5.10;100.00;99691.22;5242050;28;20047;-75
2023/12/05 03:45:49;;;;;;;22.42;20.20;;;;;;;5.11;100.00;99698.06;5239767;28;20534;-75
2023/12/05 03:48:21;;;;;;;24.73;22.20;;;;;;;5.10;100.00;99691.22;5241540;28;20477;-75
2023/12/05 03:50:53;;;;;;;22.80;20.50;;;;;;;5.12;100.00;99692.78;5243213;28;20398;-75
2023/12/05 03:53:25;;;;;;;24.65;22.13;;;;;;;5.16;100.00;99692.53;5242059;28;20036;-75
2023/12/05 03:55:57;;;;;;;23.73;21.33;;;;;;;5.10;100.00;99692.06;5242298;28;20211;-75
2023/12/05 03:58:29;;;;;;;24.00;21.58;;;;;;;5.11;100.00;99696.31;5242637;28;20213;-75
2023/12/05 04:01:01;;;;;;;25.35;22.75;;;;;;;5.12;100.00;99697.97;5241865;28;20048;-75
2023/12/05 04:03:34;;;;;;;26.80;22.55;;;;;;;5.11;100.00;99700.66;5239578;28;20036;-75
2023/12/05 04:06:06;;;;;;;25.70;23.13;;;;;;;5.17;100.00;99705.38;5240897;28;20475;-75
2023/12/05 04:08:38;;;;;;;24.20;21.80;;;;;;;5.16;100.00;99710.69;5241001;28;20044;-75
2023/12/05 04:11:10;;;;;;;24.65;22.17;;;;;;;5.19;100.00;99713.88;5239770;28;20403;-75
2023/12/05 04:13:42;;;;;;;25.00;22.50;;;;;;;5.19;100.00;99716.47;5241526;28;20033;-75
2023/12/05 04:16:14;;;;;;;25.13;22.63;;;;;;;5.16;100.00;99716.72;5241429;28;20040;-75
2023/12/05 04:18:46;;;;;;;25.60;23.08;;;;;;;5.17;100.00;99718.34;5237518;28;20025;-75
2023/12/05 04:21:18;;;;;;;24.67;22.08;;;;;;;5.20;100.00;99722.50;5239458;28;20045;-75
2023/12/05 04:23:50;;;;;;;24.73;22.27;;;;;;;5.15;100.00;99724.59;5240744;28;20040;-75
2023/12/05 04:26:22;;;;;;;24.42;21.95;;;;;;;5.17;100.00;99726.16;5242209;28;20406;-75
2023/12/05 04:28:54;;;;;;;26.02;23.35;;;;;;;5.18;100.00;99722.59;5242686;28;20033;-75
2023/12/05 04:31:26;;;;;;;26.85;24.15;;;;;;;5.20;100.00;99725.91;5242065;28;20053;-75
2023/12/05 04:33:58;;;;;;;25.88;23.30;;;;;;;5.25;100.00;99728.94;5248259;28;20630;-75
2023/12/05 04:36:30;;;;;;;24.88;22.30;;;;;;;5.25;100.00;99728.13;5249120;28;20043;-75
2023/12/05 04:39:05;;;;;;;25.48;22.98;;;;;;;5.21;100.00;99718.94;5248883;28;20025;-75
2023/12/05 04:41:37;;;;;;;25.42;22.80;;;;;;;5.25;100.00;99735.91;5249244;28;20053;-75
2023/12/05 04:44:08;;;;;;;26.00;23.33;;;;;;;5.27;100.00;99737.44;5242225;28;20037;-75
2023/12/05 04:46:41;;;;;;;26.60;23.85;;;;;;;5.27;100.00;99732.25;5245625;28;20477;-75
2023/12/05 04:49:13;;;;;;;26.73;24.02;;;;;;;5.27;100.00;99734.03;5249208;28;20390;-75
2023/12/05 04:51:45;;;;;;;26.35;23.67;;;;;;;5.23;100.00;99730.03;5247046;28;20029;-75
2023/12/05 04:54:17;;;;;;;25.42;22.88;;;;;;;5.32;100.00;99739.66;5250172;28;20064;-75
2023/12/05 04:56:48;;;;;;;26.65;23.98;;;;;;;5.32;100.00;99744.88;5250943;28;20489;-75
2023/12/05 04:59:20;;;;;;;26.08;23.42;;;;;;;5.31;100.00;99744.03;5250912;28;20409;-75
2023/12/05 05:01:53;;;;;;;26.30;23.50;;;;;;;5.30;100.00;99752.78;5247068;28;20402;-75
2023/12/05 05:04:25;;;;;;;26.10;23.42;;;;;;;5.36;100.00;99751.47;5249788;28;20370;-75
2023/12/05 05:06:57;;;;;;;25.75;23.05;;;;;;;5.31;100.00;99744.03;5247145;28;20048;-75
2023/12/05 05:09:29;;;;;;;25.35;22.85;;;;;;;5.35;100.00;99752.41;5248429;28;20046;-75
2023/12/05 05:12:00;;;;;;;26.42;23.73;;;;;;;5.33;100.00;99752.53;5249317;28;20039;-75
2023/12/05 05:14:32;;;;;;;26.17;23.50;;;;;;;5.34;100.00;99755.94;5249301;28;20491;-75
2023/12/05 05:17:07;;;;;;;25.90;23.15;;;;;;;5.31;100.00;99751.84;5249745;28;20037;-75
2023/12/05 05:19:38;;;;;;;27.15;24.40;;;;;;;5.33;100.00;99759.50;5248547;28;20379;-75
2023/12/05 05:22:10;;;;;;;25.98;23.30;;;;;;;5.34;100.00;99758.53;5249066;28;20046;-75
2023/12/05 05:24:42;;;;;;;25.60;23.05;;;;;;;5.34;100.00;99759.38;5247590;28;20027;-75
2023/12/05 05:27:14;;;;;;;25.98;23.38;;;;;;;5.39;100.00;99769.41;5249563;28;20040;-75
2023/12/05 05:29:46;;;;;;;25.15;22.55;;;;;;;5.36;100.00;99764.44;5241849;28;20029;-75
2023/12/05 05:32:18;;;;;;;26.55;23.73;;;;;;;5.38;100.00;99759.97;5237959;28;20077;-75
2023/12/05 05:34:50;;;;;;;25.55;22.95;;;;;;;5.36;100.00;99762.66;5235275;28;20033;-75
2023/12/05 05:37:22;;;;;;;26.80;24.10;;;;;;;5.37;100.00;99768.69;5238025;28;20041;-75
2023/12/05 05:39:54;;;;;;;25.92;23.27;;;;;;;5.36;100.00;99761.84;5239219;28;20029;-75
2023/12/05 05:42:25;;;;;;;25.50;22.90;;;;;;;5.36;100.00;99762.66;5240460;28;20495;-74
2023/12/05 05:44:57;;;;;;;25.20;22.60;;;;;;;5.33;100.00;99764.69;5238384;28;20642;-74
2023/12/05 05:47:31;;;;;;;25.17;22.67;;;;;;;5.37;100.00;99766.09;5239920;28;20378;-75
2023/12/05 05:50:03;;;;;;;26.83;23.92;;;;;;;5.36;100.00;99780.84;5239033;28;20025;-75
2023/12/05 05:52:36;;;;;;;24.63;22.13;;;;;;;5.43;100.00;99767.38;5240662;28;20041;-74
2023/12/05 05:55:08;;;;;;;24.48;21.98;;;;;;;5.16;100.00;99732.28;5241334;28;20296;-74
2023/12/05 05:57:40;;;;;;;25.52;22.92;;;;;;;5.43;100.00;99767.38;5238629;28;20033;-75
2023/12/05 06:00:12;;;;;;;25.52;22.95;;;;;;;5.38;100.00;99767.75;5236037;28;20032;-75
2023/12/05 06:02:44;;;;;;;25.42;22.77;;;;;;;5.44;100.00;99764.66;5237786;28;20041;-75
2023/12/05 06:05:16;;;;;;;25.25;22.65;;;;;;;5.43;100.00;99772.56;5235958;28;20036;-75
2023/12/05 06:07:48;;;;;;;25.63;23.05;;;;;;;5.42;100.00;99774.34;5241192;28;20029;-74
2023/12/05 06:10:20;;;;;;;25.70;22.95;;;;;;;5.38;100.00;99767.75;5237742;28;20116;-75
2023/12/05 06:12:52;;;;;;;25.88;22.95;;;;;;;5.45;100.00;99781.06;5238433;28;20040;-75
2023/12/05 06:15:24;;;;;;;24.17;21.67;;;;;;;5.44;100.00;99780.22;5236815;28;20410;-75
2023/12/05 06:17:57;;;;;;;25.15;22.58;;;;;;;5.48;100.00;99775.63;5235413;28;20029;-75
2023/12/05 06:20:29;;;;;;;25.08;22.60;;;;;;;5.49;100.00;99782.44;5243105;28;20040;-75
2023/12/05 06:23:01;;;;;;;24.67;22.23;;;;;;;5.50;100.00;99786.72;5238590;28;20104;-75
2023/12/05 06:25:33;;;;;;;24.90;22.30;;;;;;;5.50;100.00;99791.91;5242516;28;20043;-75
2023/12/05 06:28:05;;;;;;;23.90;21.42;;;;;;;5.48;100.00;99794.63;5242443;28;20067;-74
2023/12/05 06:30:37;;;;;;;24.67;21.70;;;;;;;5.53;100.00;99802.91;5237413;28;20029;-74
2023/12/05 06:33:09;;;;;;;24.33;21.58;;;;;;;5.50;100.00;99804.91;5246840;28;20469;-75
2023/12/05 06:35:41;;;;;;;24.60;22.05;;;;;;;5.52;100.00;99808.19;5248173;28;20063;-75
2023/12/05 06:38:14;;;;;;;23.35;20.80;;;;;;;5.56;100.00;99804.41;5247693;28;20033;-75
2023/12/05 06:40:45;;;;;;;25.15;22.65;;;;;;;5.57;100.00;99819.88;5244890;28;20029;-75
2023/12/05 06:43:17;;;;;;;25.23;22.52;;;;;;;5.56;100.00;99815.59;5247796;28;20128;-75
2023/12/05 06:45:50;;;;;;;24.65;22.02;;;;;;;5.57;100.00;99806.88;5250860;28;20028;-75
2023/12/05 06:48:22;;;;;;;25.05;22.42;;;;;;;5.56;100.00;99813.00;5250035;28;20405;-75
2023/12/05 06:50:54;;;;;;;26.15;23.42;;;;;;;5.59;100.00;99819.75;5249912;28;20037;-75
2023/12/05 06:53:26;;;;;;;25.23;22.55;;;;;;;5.59;100.00;99820.56;5252301;28;20039;-75
2023/12/05 06:55:57;;;;;;;26.48;23.67;;;;;;;5.58;100.00;99826.72;5244136;28;20442;-75
2023/12/05 06:58:29;;;;;;;27.00;24.05;;;;;;;5.61;100.00;99828.25;5248085;28;20036;-75
2023/12/05 07:01:01;;;;;;;26.20;23.40;;;;;;;5.58;100.00;99829.31;5251043;28;20066;-75
2023/12/05 07:03:33;;;;;;;26.10;22.88;;;;;;;5.60;100.00;99837.78;5250566;28;20036;-75
2023/12/05 07:06:06;;;;;;;25.65;22.90;;;;;;;5.61;100.00;99836.06;5249777;28;20021;-75
2023/12/05 07:08:37;;;;;;;26.15;23.42;;;;;;;5.63;100.00;99839.34;5248808;28;20037;-75
2023/12/05 07:11:09;;;;;;;24.88;22.35;;;;;;;5.64;100.00;99845.34;5252438;28;20032;-74
2023/12/05 07:13:41;;;;;;;25.95;23.25;;;;;;;5.63;100.00;99844.53;5255740;28;20371;-75
2023/12/05 07:16:13;;;;;;;26.70;23.95;;;;;;;5.59;100.00;99858.72;5253557;28;20033;-75
2023/12/05 07:18:45;;;;;;;25.95;23.20;;;;;;;5.53;100.00;99854.84;5254872;28;20048;-75
2023/12/05 07:21:17;;;;;;;26.88;23.83;;;;;;;5.57;100.00;99858.84;5253828;28;20052;-75
2023/12/05 07:23:49;;;;;;;25.30;22.55;;;;;;;5.60;100.00;99858.59;5254859;28;20043;-75
2023/12/05 07:26:21;;;;;;;25.75;22.95;;;;;;;5.53;100.00;99856.59;5253094;28;20029;-75
2023/12/05 07:28:53;;;;;;;28.83;24.35;;;;;;;5.54;100.00;99861.69;5254579;28;20032;-75
2023/12/05 07:31:24;;;;;;;25.52;22.83;;;;;;;5.56;100.00;99872.78;5255734;28;20072;-75
2023/12/05 07:33:57;;;;;;;25.60;22.77;;;;;;;5.55;100.00;99875.50;5264509;28;20038;-75
2023/12/05 07:36:29;;;;;;;26.33;23.48;;;;;;;5.58;100.00;99878.69;5246221;28;20075;-75
2023/12/05 07:39:01;;;;;;;26.80;23.95;;;;;;;5.55;100.00;99884.13;5262505;28;20028;-75
2023/12/05 07:41:33;;;;;;;27.20;23.17;;;;;;;5.56;100.00;99887.53;5260105;28;20029;-75
2023/12/05 07:44:06;;;;;;;26.88;23.75;;;;;;;5.56;100.00;99893.56;5241886;28;20607;-75
2023/12/05 07:46:42;;;;;;;27.17;22.85;;;;;;;5.63;100.00;99893.91;5245449;28;20048;-75
2023/12/05 07:49:15;;;;;;;26.10;23.30;;;;;;;5.54;100.00;99908.44;5265195;28;20041;-75
2023/12/05 07:51:49;;;;;;;27.00;23.35;;;;;;;5.61;100.00;99908.81;5265586;28;20047;-75
2023/12/05 07:54:21;;;;;;;27.55;24.15;;;;;;;5.53;100.00;99916.34;5265715;28;20078;-75
2023/12/05 07:56:53;;;;;;;27.17;23.98;;;;;;;5.50;100.00;99921.81;5264750;28;20024;-75
2023/12/05 07:59:25;;;;;;;27.08;23.30;;;;;;;5.50;100.00;99920.03;5263234;28;20032;-75
2023/12/05 08:01:57;;;;;;;27.27;23.75;;;;;;;5.46;100.00;99918.63;5265494;28;20020;-75
2023/12/05 08:04:29;;;;;;;29.08;25.15;;;;;;;5.27;100.00;99888.06;5260204;28;20032;-75
2023/12/05 08:07:01;;;;;;;31.40;23.85;;;;;;;5.51;100.00;99932.06;5258685;28;20039;-75
2023/12/05 08:09:33;;;;;;;28.17;24.05;;;;;;;5.53;100.00;99937.97;5261218;28;20029;-75
2023/12/05 08:12:06;;;;;;;29.95;24.65;;;;;;;5.48;100.00;99937.50;5263561;28;20371;-75
2023/12/05 08:14:39;;;;;;;28.25;24.25;;;;;;;5.50;100.00;99948.59;5265016;28;20037;-75
2023/12/05 08:17:11;;;;;;;26.27;23.42;;;;;;;5.48;100.00;99941.88;5243646;28;20048;-75
2023/12/05 08:19:43;;;;;;;30.10;24.10;;;;;;;5.45;100.00;99945.53;5261699;28;20033;-75
2023/12/05 08:22:15;;;;;;;30.65;24.25;;;;;;;5.42;100.00;99955.31;5263967;28;20025;-75
2023/12/05 08:24:46;;;;;;;29.23;22.63;;;;;;;5.37;100.00;99956.50;5261973;28;20033;-75
2023/12/05 08:27:18;;;;;;;27.80;22.60;;;;;;;5.37;100.00;99959.09;5264215;28;20370;-74
2023/12/05 08:29:50;;;;;;;28.33;22.52;;;;;;;5.36;100.00;99964.44;5259846;28;20044;-75
2023/12/05 08:32:22;;;;;;;28.90;23.20;;;;;;;5.36;100.00;99964.44;5254308;28;20128;-75
2023/12/05 08:34:54;;;;;;;27.63;23.17;;;;;;;5.32;100.00;99971.63;5251225;28;20128;-74
2023/12/05 08:37:27;;;;;;;25.83;22.63;;;;;;;5.37;100.00;99974.69;5240540;28;20407;-74
2023/12/05 08:39:59;;;;;;;30.58;23.52;;;;;;;5.34;100.00;99972.34;5253019;28;20028;-75
2023/12/05 08:42:31;;;;;;;28.60;23.67;;;;;;;5.31;100.00;99969.16;5238957;28;20355;-75
2023/12/05 08:45:03;;;;;;;31.77;24.75;;;;;;;5.37;100.00;99984.25;5249026;28;20020;-75
2023/12/05 08:47:37;;;;;;;29.85;24.50;;;;;;;5.30;100.00;99973.53;5251887;28;20033;-75
2023/12/05 08:50:09;;;;;;;28.95;24.27;;;;;;;5.36;100.00;99980.00;5250145;28;20025;-75
2023/12/05 08:52:44;;;;;;;28.30;24.20;;;;;;;5.36;100.00;99986.03;5251826;28;20368;-75
2023/12/05 08:55:17;;;;;;;28.33;23.88;;;;;;;5.31;100.00;99987.34;5253198;28;20017;-75
2023/12/05 08:57:48;;;;;;;31.73;23.03;;;;;;;5.27;100.00;99985.94;5251177;28;20032;-75
2023/12/05 09:00:20;;;;;;;28.92;24.52;;;;;;;5.24;100.00;99986.97;5251000;28;20498;-74
2023/12/05 09:02:55;;;;;;;30.02;22.70;;;;;;;5.27;100.00;99991.13;5251818;28;20032;-75
2023/12/05 09:05:27;;;;;;;32.65;23.23;;;;;;;5.26;100.00;100000.66;5252600;28;20028;-75
2023/12/05 09:08:00;;;;;;;32.13;24.25;;;;;;;5.25;100.00;99996.41;5250194;28;20068;-75
2023/12/05 09:10:32;;;;;;;29.83;23.45;;;;;;;5.27;100.00;100006.69;5251703;28;20395;-75
2023/12/05 09:13:04;;;;;;;29.40;23.85;;;;;;;5.21;100.00;99999.38;5251961;28;20028;-75
2023/12/05 09:15:37;;;;;;;30.85;24.42;;;;;;;5.25;100.00;100003.38;5250345;28;20643;-75
2023/12/05 09:18:10;;;;;;;29.23;23.17;;;;;;;5.28;100.00;100014.38;5250037;28;20402;-75
2023/12/05 09:20:42;;;;;;;32.03;23.95;;;;;;;5.29;100.00;100010.81;5250509;28;20029;-75
2023/12/05 09:23:14;;;;;;;30.50;22.75;;;;;;;5.29;100.00;100015.19;5250493;28;20063;-75
2023/12/05 09:25:46;;;;;;;37.20;24.90;;;;;;;5.31;100.00;100014.13;5250148;28;20036;-75
2023/12/05 09:28:18;;;;;;;30.60;23.85;;;;;;;5.35;100.00;100019.94;5252931;28;20032;-75
2023/12/05 09:30:50;;;;;;;31.70;23.40;;;;;;;5.32;100.00;100031.38;5250782;28;20028;-75
2023/12/05 09:33:22;;;;;;;29.65;24.13;;;;;;;5.36;100.00;100024.16;5250291;28;20049;-75
2023/12/05 09:35:54;;;;;;;29.92;23.67;;;;;;;5.39;100.00;100039.53;5248881;28;20619;-75
2023/12/05 09:38:26;;;;;;;32.45;23.13;;;;;;;5.43;100.00;100051.34;5251796;28;20029;-75
2023/12/05 09:40:58;;;;;;;31.92;23.05;;;;;;;5.40;100.00;100048.16;5251632;28;20029;-75
2023/12/05 09:43:33;;;;;;;26.70;21.95;;;;;;;5.42;100.00;100054.03;5250136;28;20363;-74
2023/12/05 09:46:09;;;;;;;28.88;21.80;;;;;;;5.39;100.00;100057.72;5252518;28;20100;-75
2023/12/05 09:48:46;;;;;;;33.70;22.08;;;;;;;5.45;100.00;100046.84;5248517;28;20021;-75
2023/12/05 09:51:18;;;;;;;27.98;22.13;;;;;;;5.40;100.00;100058.53;5250738;28;20060;-75
2023/12/05 09:53:53;;;;;;;28.80;21.73;;;;;;;5.36;100.00;100052.75;5252183;28;20482;-75
2023/12/05 09:56:26;;;;;;;28.55;21.73;;;;;;;5.41;100.00;100055.81;5251125;28;20077;-74
2023/12/05 09:58:59;;;;;;;28.80;21.10;;;;;;;5.37;100.00;100042.22;5251445;28;20025;-75
2023/12/05 10:01:34;;;;;;;29.88;21.40;;;;;;;5.55;100.00;100060.78;5248644;28;20365;-75
2023/12/05 10:04:10;;;;;;;27.30;21.60;;;;;;;5.45;100.00;100041.63;5252290;28;20029;-75
2023/12/05 10:06:44;;;;;;;31.15;23.00;;;;;;;5.50;100.00;100069.88;5248378;28;20028;-75
2023/12/05 10:09:17;;;;;;;31.75;22.00;;;;;;;5.51;100.00;100076.72;5246313;28;20525;-75
2023/12/05 10:11:50;;;;;;;30.13;22.23;;;;;;;5.55;100.00;100084.16;5248815;28;20028;-75
2023/12/05 10:14:22;;;;;;;31.42;22.70;;;;;;;5.56;100.00;100090.19;5252101;28;20482;-75
2023/12/05 10:16:55;;;;;;;32.00;23.33;;;;;;;5.48;100.00;100084.75;5243784;28;20072;-75
2023/12/05 10:19:27;;;;;;;28.42;23.35;;;;;;;5.55;100.00;100093.75;5249339;28;20040;-75
2023/12/05 10:21:59;;;;;;;34.28;24.38;;;;;;;5.54;100.00;100092.09;5250719;28;20037;-75
2023/12/05 10:24:51;;;;;;;30.75;23.30;;;;;;;5.74;100.00;100095.75;5251254;28;20060;-75
2023/12/05 10:27:23;;;;;;;34.78;23.52;;;;;;;5.41;100.00;100099.16;5250818;28;21325;-75
2023/12/05 10:29:54;;;;;;;33.03;25.23;;;;;;;5.45;100.00;100106.59;5249820;28;20040;-75
2023/12/05 10:32:29;;;;;;;31.50;23.55;;;;;;;5.42;100.00;100103.38;5242834;28;20065;-75
2023/12/05 10:35:03;;;;;;;32.08;24.30;;;;;;;5.43;100.00;100102.47;5237310;28;20053;-75
2023/12/05 10:37:35;;;;;;;27.52;22.55;;;;;;;5.42;100.00;100106.84;5242946;28;20598;-75
2023/12/05 10:40:08;;;;;;;28.83;22.38;;;;;;;5.28;100.00;100089.69;5241581;28;20031;-75
2023/12/05 10:42:39;;;;;;;30.60;22.20;;;;;;;5.41;100.00;100102.56;5238319;28;20395;-75
2023/12/05 10:45:12;;;;;;;29.63;23.48;;;;;;;5.43;100.00;100107.66;5237541;28;20039;-75
2023/12/05 10:47:43;;;;;;;26.27;21.13;;;;;;;5.46;100.00;100121.25;5242415;28;20028;-75
2023/12/05 10:50:16;;;;;;;24.27;18.95;;;;;;;5.37;100.00;100111.53;5243822;28;20029;-74
2023/12/05 10:52:48;;;;;;;24.67;20.67;;;;;;;5.52;100.00;100125.16;5226275;28;20133;-75
2023/12/05 10:55:24;;;;;;;23.75;18.65;;;;;;;5.57;100.00;100126.47;5244333;28;20029;-75
2023/12/05 10:57:56;;;;;;;22.58;18.30;;;;;;;5.48;100.00;100134.13;5242005;28;20497;-75
2023/12/05 11:00:29;;;;;;;21.65;17.08;;;;;;;5.50;100.00;100125.28;5242944;28;20364;-75
2023/12/05 11:03:05;;;;;;;19.65;16.13;;;;;;;5.53;100.00;100131.97;5241602;28;20394;-75
2023/12/05 11:05:36;;;;;;;19.73;14.55;;;;;;;5.53;100.00;100127.66;5244706;28;20029;-75
2023/12/05 11:08:09;;;;;;;17.63;14.57;;;;;;;5.53;100.00;100135.44;5242846;28;20401;-75
2023/12/05 11:10:41;;;;;;;17.70;14.23;;;;;;;5.52;100.00;100136.34;5242384;28;20041;-75
2023/12/05 11:13:13;;;;;;;17.80;15.13;;;;;;;5.53;100.00;100139.78;5235728;28;20303;-75
2023/12/05 11:15:49;;;;;;;14.82;13.27;;;;;;;5.61;100.00;100140.06;5240771;28;20025;-75
2023/12/05 11:18:34;;;;;;;15.57;13.90;;;;;;;5.68;100.00;100141.22;5244350;28;20040;-75
2023/12/05 11:21:23;;;;;;;14.48;12.85;;;;;;;5.70;100.00;100135.94;5241734;28;20041;-75
2023/12/05 11:23:55;;;;;;;14.38;12.10;;;;;;;5.55;100.00;100151.72;5243675;28;20471;-75
2023/12/05 11:26:43;;;;;;;13.48;11.73;;;;;;;5.78;100.00;100151.75;5238531;28;20213;-74
2023/12/05 11:29:45;;;;;;;13.95;11.93;;;;;;;5.75;100.00;100146.78;5243494;28;20037;-74
2023/12/05 11:32:30;;;;;;;13.35;11.93;;;;;;;5.65;100.00;100153.66;5246341;28;20402;-74
2023/12/05 11:35:30;;;;;;;12.55;11.10;;;;;;;5.80;100.00;100161.13;5253734;28;20453;-74
2023/12/05 11:38:10;;;;;;;14.48;11.70;;;;;;;5.68;100.00;100159.41;5253865;28;20037;-74
2023/12/05 11:40:42;;;;;;;14.07;11.60;;;;;;;5.52;100.00;100159.75;5249740;28;20337;-74